createdAt,value
2023-05-09T00:00:36.396Z,166.22
2023-05-09T00:01:36.429Z,167.42
2023-05-09T00:02:36.501Z,171.88
2023-05-09T00:03:36.484Z,168.05
2023-05-09T00:04:36.446Z,168.14
2023-05-09T00:05:36.415Z,167.60
2023-05-09T00:06:36.465Z,168.87
2023-05-09T00:07:36.431Z,167.09
2023-05-09T00:08:36.443Z,166.32
2023-05-09T00:09:36.430Z,166.75
2023-05-09T00:10:36.415Z,169.73
2023-05-09T00:11:36.388Z,166.61
2023-05-09T00:12:36.385Z,166.72
2023-05-09T00:13:36.381Z,164.94
2023-05-09T00:14:36.399Z,167.23
2023-05-09T00:15:36.377Z,167.95
2023-05-09T00:16:36.417Z,167.28
2023-05-09T00:17:36.444Z,166.93
2023-05-09T00:18:36.383Z,166.56
2023-05-09T00:19:36.451Z,167.99
2023-05-09T00:20:36.380Z,169.51
2023-05-09T00:21:36.376Z,167.14
2023-05-09T00:22:36.417Z,166.40
2023-05-09T00:23:36.397Z,165.74
2023-05-09T00:24:36.394Z,166.97
2023-05-09T00:25:36.408Z,169.36
2023-05-09T00:26:36.368Z,166.33
2023-05-09T00:27:36.397Z,166.98
2023-05-09T00:28:36.418Z,165.91
2023-05-09T00:29:36.369Z,162.90
2023-05-09T00:30:36.399Z,169.75
2023-05-09T00:31:36.409Z,165.27
2023-05-09T00:32:36.406Z,167.81
2023-05-09T00:33:36.425Z,166.77
2023-05-09T00:34:36.396Z,167.45
2023-05-09T00:35:36.475Z,166.32
2023-05-09T00:36:36.442Z,168.24
2023-05-09T00:37:36.426Z,167.29
2023-05-09T00:38:36.406Z,164.91
2023-05-09T00:39:36.422Z,168.35
2023-05-09T00:40:36.384Z,166.80
2023-05-09T00:41:36.423Z,164.20
2023-05-09T00:42:36.415Z,166.76
2023-05-09T00:43:36.405Z,165.87
2023-05-09T00:44:36.415Z,165.15
2023-05-09T00:45:36.405Z,164.27
2023-05-09T00:46:36.437Z,166.89
2023-05-09T00:47:36.532Z,165.97
2023-05-09T00:48:36.400Z,168.28
2023-05-09T00:49:36.376Z,164.88
2023-05-09T00:50:36.387Z,165.86
2023-05-09T00:51:36.479Z,166.02
2023-05-09T00:52:36.395Z,165.59
2023-05-09T00:53:36.425Z,164.61
2023-05-09T00:54:36.442Z,166.51
2023-05-09T00:55:36.429Z,165.35
2023-05-09T00:56:36.440Z,167.69
2023-05-09T00:57:36.443Z,165.92
2023-05-09T00:58:36.467Z,166.67
2023-05-09T00:59:36.445Z,163.28
2023-05-09T01:00:36.462Z,166.70
2023-05-09T01:01:36.515Z,163.04
2023-05-09T01:02:36.479Z,165.43
2023-05-09T01:03:36.591Z,167.97
2023-05-09T01:04:36.472Z,166.56
2023-05-09T01:05:36.451Z,163.97
2023-05-09T01:06:36.441Z,166.84
2023-05-09T01:07:36.527Z,165.08
2023-05-09T01:08:36.464Z,166.48
2023-05-09T01:09:36.476Z,163.74
2023-05-09T01:10:36.473Z,164.36
2023-05-09T01:11:36.481Z,165.14
2023-05-09T01:12:36.490Z,164.08
2023-05-09T01:13:36.481Z,165.61
2023-05-09T01:14:36.483Z,166.14
2023-05-09T01:15:36.600Z,167.19
2023-05-09T01:16:36.483Z,163.89
2023-05-09T01:17:36.494Z,164.05
2023-05-09T01:18:36.473Z,166.47
2023-05-09T01:19:36.455Z,163.97
2023-05-09T01:20:36.452Z,162.94
2023-05-09T01:21:36.460Z,160.94
2023-05-09T01:22:36.449Z,162.65
2023-05-09T01:23:36.537Z,162.69
2023-05-09T01:24:36.442Z,165.97
2023-05-09T01:25:36.531Z,165.16
2023-05-09T01:26:36.476Z,165.39
2023-05-09T01:27:36.473Z,163.75
2023-05-09T01:28:36.466Z,161.16
2023-05-09T01:29:36.453Z,165.49
2023-05-09T01:30:36.501Z,164.27
2023-05-09T01:31:36.504Z,161.65
2023-05-09T01:32:36.529Z,162.12
2023-05-09T01:33:36.499Z,163.94
2023-05-09T01:34:36.491Z,164.22
2023-05-09T01:35:36.499Z,164.65
2023-05-09T01:36:36.463Z,162.91
2023-05-09T01:37:36.505Z,165.07
2023-05-09T01:38:36.508Z,164.78
2023-05-09T01:39:36.601Z,161.73
2023-05-09T01:40:36.513Z,163.99
2023-05-09T01:41:36.536Z,165.01
2023-05-09T01:42:36.514Z,162.78
2023-05-09T01:43:36.546Z,164.84
2023-05-09T01:44:36.537Z,162.01
2023-05-09T01:45:36.524Z,162.87
2023-05-09T01:46:36.574Z,161.09
2023-05-09T01:47:36.562Z,161.49
2023-05-09T01:48:36.514Z,159.52
2023-05-09T01:49:36.492Z,162.56
2023-05-09T01:50:36.525Z,159.82
2023-05-09T01:51:36.521Z,159.12
2023-05-09T01:52:37.176Z,160.01
2023-05-09T01:53:36.529Z,163.38
2023-05-09T01:54:36.506Z,161.16
2023-05-09T01:55:36.601Z,163.00
2023-05-09T01:56:36.524Z,160.19
2023-05-09T01:57:36.497Z,158.84
2023-05-09T01:58:36.535Z,162.87
2023-05-09T01:59:36.480Z,161.85
2023-05-09T02:00:36.551Z,159.68
2023-05-09T02:01:36.473Z,160.87
2023-05-09T02:02:36.556Z,160.07
2023-05-09T02:03:36.493Z,159.17
2023-05-09T02:04:36.477Z,160.90
2023-05-09T02:05:38.230Z,158.08
2023-05-09T02:06:36.529Z,161.05
2023-05-09T02:07:36.488Z,161.54
2023-05-09T02:08:36.509Z,159.51
2023-05-09T02:09:36.520Z,159.30
2023-05-09T02:10:36.504Z,161.89
2023-05-09T02:11:36.597Z,158.32
2023-05-09T02:12:36.604Z,162.28
2023-05-09T02:13:36.553Z,161.57
2023-05-09T02:14:36.541Z,160.80
2023-05-09T02:15:36.561Z,158.21
2023-05-09T02:16:36.595Z,156.93
2023-05-09T02:17:36.581Z,162.27
2023-05-09T02:18:36.563Z,158.02
2023-05-09T02:19:36.582Z,161.01
2023-05-09T02:20:36.572Z,158.95
2023-05-09T02:21:36.562Z,159.69
2023-05-09T02:22:36.550Z,159.16
2023-05-09T02:23:36.573Z,157.69
2023-05-09T02:24:36.546Z,158.27
2023-05-09T02:25:36.562Z,160.41
2023-05-09T02:26:36.555Z,159.42
2023-05-09T02:27:36.628Z,158.07
2023-05-09T02:28:36.605Z,158.52
2023-05-09T02:29:36.579Z,154.79
2023-05-09T02:30:36.602Z,155.57
2023-05-09T02:31:36.658Z,159.27
2023-05-09T02:32:36.598Z,157.61
2023-05-09T02:33:36.594Z,156.88
2023-05-09T02:34:36.593Z,158.80
2023-05-09T02:35:36.580Z,158.41
2023-05-09T02:36:36.594Z,157.52
2023-05-09T02:37:36.627Z,155.70
2023-05-09T02:38:36.684Z,157.41
2023-05-09T02:39:36.657Z,156.70
2023-05-09T02:40:36.704Z,154.00
2023-05-09T02:41:36.696Z,156.15
2023-05-09T02:42:36.668Z,157.21
2023-05-09T02:43:36.746Z,154.72
2023-05-09T02:44:36.686Z,157.55
2023-05-09T02:45:36.699Z,155.94
2023-05-09T02:46:36.683Z,153.54
2023-05-09T02:47:36.732Z,153.12
2023-05-09T02:48:36.711Z,152.35
2023-05-09T02:49:36.708Z,155.77
2023-05-09T02:50:36.737Z,155.75
2023-05-09T02:51:36.720Z,153.46
2023-05-09T02:52:36.742Z,155.26
2023-05-09T02:53:36.772Z,154.26
2023-05-09T02:54:36.772Z,153.35
2023-05-09T02:55:36.745Z,154.41
2023-05-09T02:56:36.757Z,153.45
2023-05-09T02:57:36.759Z,154.43
2023-05-09T02:58:36.847Z,154.37
2023-05-09T02:59:36.865Z,153.36
2023-05-09T03:00:36.799Z,156.75
2023-05-09T03:01:36.919Z,153.23
2023-05-09T03:02:36.948Z,154.23
2023-05-09T03:03:36.984Z,151.63
2023-05-09T03:04:36.877Z,150.61
2023-05-09T03:05:36.887Z,153.03
2023-05-09T03:06:36.871Z,154.97
2023-05-09T03:07:36.885Z,151.44
2023-05-09T03:08:36.890Z,150.22
2023-05-09T03:09:37.969Z,152.39
2023-05-09T03:10:36.901Z,150.73
2023-05-09T03:11:36.904Z,151.25
2023-05-09T03:12:36.918Z,154.53
2023-05-09T03:13:36.924Z,152.14
2023-05-09T03:14:36.942Z,153.46
2023-05-09T03:15:37.052Z,152.28
2023-05-09T03:16:36.954Z,151.51
2023-05-09T03:17:36.972Z,150.54
2023-05-09T03:18:36.998Z,149.69
2023-05-09T03:19:36.976Z,151.52
2023-05-09T03:20:36.981Z,153.10
2023-05-09T03:21:37.018Z,149.97
2023-05-09T03:22:37.014Z,151.52
2023-05-09T03:23:37.041Z,152.22
2023-05-09T03:24:37.037Z,150.01
2023-05-09T03:25:37.022Z,150.81
2023-05-09T03:26:37.027Z,152.88
2023-05-09T03:27:37.088Z,151.06
2023-05-09T03:28:37.079Z,148.57
2023-05-09T03:29:37.090Z,154.18
2023-05-09T03:30:37.078Z,148.31
2023-05-09T03:31:37.201Z,151.40
2023-05-09T03:32:37.149Z,150.60
2023-05-09T03:33:37.138Z,153.08
2023-05-09T03:34:37.149Z,151.00
2023-05-09T03:35:37.121Z,152.79
2023-05-09T03:36:37.108Z,150.36
2023-05-09T03:37:37.138Z,150.08
2023-05-09T03:38:37.119Z,148.48
2023-05-09T03:39:37.144Z,149.22
2023-05-09T03:40:37.160Z,151.44
2023-05-09T03:41:37.166Z,152.02
2023-05-09T03:42:37.151Z,150.25
2023-05-09T03:43:37.157Z,148.20
2023-05-09T03:44:37.177Z,151.36
2023-05-09T03:45:37.215Z,149.68
2023-05-09T03:46:37.211Z,147.27
2023-05-09T03:47:37.337Z,149.22
2023-05-09T03:48:37.237Z,152.38
2023-05-09T03:49:37.194Z,148.63
2023-05-09T03:50:37.225Z,151.60
2023-05-09T03:51:37.874Z,150.71
2023-05-09T03:52:37.238Z,149.04
2023-05-09T03:53:37.239Z,149.34
2023-05-09T03:54:37.267Z,149.12
2023-05-09T03:55:37.242Z,147.74
2023-05-09T03:56:37.264Z,147.72
2023-05-09T03:57:37.295Z,149.06
2023-05-09T03:58:37.322Z,145.90
2023-05-09T03:59:37.319Z,147.71
2023-05-09T04:00:37.286Z,147.85
2023-05-09T04:01:39.520Z,150.48
2023-05-09T04:02:37.444Z,148.48
2023-05-09T04:03:37.516Z,152.20
2023-05-09T04:04:37.255Z,151.11
2023-05-09T04:05:37.282Z,147.07
2023-05-09T04:06:37.271Z,149.26
2023-05-09T04:07:37.260Z,149.59
2023-05-09T04:08:37.230Z,147.04
2023-05-09T04:09:37.242Z,147.63
2023-05-09T04:10:37.239Z,148.64
2023-05-09T04:11:37.218Z,149.90
2023-05-09T04:12:37.253Z,145.89
2023-05-09T04:13:37.200Z,148.86
2023-05-09T04:14:37.236Z,147.27
2023-05-09T04:15:37.197Z,149.33
2023-05-09T04:16:37.275Z,146.08
2023-05-09T04:17:37.229Z,143.50
2023-05-09T04:18:37.307Z,147.83
2023-05-09T04:19:37.233Z,144.46
2023-05-09T04:20:37.140Z,146.19
2023-05-09T04:21:37.147Z,150.90
2023-05-09T04:22:37.161Z,147.73
2023-05-09T04:23:37.136Z,144.06
2023-05-09T04:24:37.165Z,148.86
2023-05-09T04:25:37.145Z,147.58
2023-05-09T04:26:37.127Z,147.39
2023-05-09T04:27:37.119Z,148.34
2023-05-09T04:28:37.109Z,144.15
2023-05-09T04:29:37.116Z,147.30
2023-05-09T04:30:37.147Z,145.59
2023-05-09T04:31:37.271Z,145.67
2023-05-09T04:32:37.193Z,142.76
2023-05-09T04:33:37.771Z,147.64
2023-05-09T04:34:37.084Z,149.46
2023-05-09T04:35:37.179Z,143.62
2023-05-09T04:36:37.080Z,147.22
2023-05-09T04:37:37.071Z,146.37
2023-05-09T04:38:37.062Z,146.49
2023-05-09T04:39:37.017Z,146.93
2023-05-09T04:40:37.030Z,142.33
2023-05-09T04:41:37.051Z,147.79
2023-05-09T04:42:37.002Z,143.89
2023-05-09T04:43:36.993Z,145.71
2023-05-09T04:44:36.984Z,145.05
2023-05-09T04:45:37.017Z,146.53
2023-05-09T04:46:37.028Z,144.95
2023-05-09T04:47:37.057Z,146.24
2023-05-09T04:48:36.961Z,145.00
2023-05-09T04:49:36.941Z,144.66
2023-05-09T04:50:37.017Z,144.27
2023-05-09T04:51:36.999Z,144.00
2023-05-09T04:52:36.962Z,144.41
2023-05-09T04:53:36.952Z,145.24
2023-05-09T04:54:36.921Z,145.56
2023-05-09T04:55:37.053Z,146.48
2023-05-09T04:56:36.892Z,144.79
2023-05-09T04:57:36.873Z,146.23
2023-05-09T04:58:37.299Z,141.75
2023-05-09T04:59:36.899Z,141.93
2023-05-09T05:00:36.870Z,142.18
2023-05-09T05:01:36.946Z,142.36
2023-05-09T05:02:36.903Z,143.55
2023-05-09T05:03:36.875Z,144.17
2023-05-09T05:04:36.853Z,144.88
2023-05-09T05:05:37.496Z,143.82
2023-05-09T05:06:36.830Z,144.06
2023-05-09T05:07:36.905Z,142.80
2023-05-09T05:08:36.820Z,144.68
2023-05-09T05:09:36.846Z,143.87
2023-05-09T05:10:36.834Z,142.91
2023-05-09T05:11:36.822Z,142.16
2023-05-09T05:12:36.785Z,140.42
2023-05-09T05:13:36.808Z,141.94
2023-05-09T05:14:36.777Z,139.48
2023-05-09T05:15:36.809Z,139.27
2023-05-09T05:16:36.956Z,141.25
2023-05-09T05:17:36.792Z,140.17
2023-05-09T05:18:36.761Z,140.60
2023-05-09T05:19:36.765Z,141.50
2023-05-09T05:20:36.796Z,138.88
2023-05-09T05:21:36.746Z,141.93
2023-05-09T05:22:36.728Z,139.88
2023-05-09T05:23:36.821Z,141.91
2023-05-09T05:24:36.757Z,140.61
2023-05-09T05:25:36.719Z,141.69
2023-05-09T05:26:36.705Z,139.39
2023-05-09T05:27:36.702Z,137.28
2023-05-09T05:28:36.676Z,140.01
2023-05-09T05:29:36.693Z,139.73
2023-05-09T05:30:36.661Z,141.52
2023-05-09T05:31:36.723Z,137.57
2023-05-09T05:32:36.795Z,137.26
2023-05-09T05:33:36.639Z,143.37
2023-05-09T05:34:36.678Z,142.27
2023-05-09T05:35:36.658Z,142.65
2023-05-09T05:36:36.626Z,144.69
2023-05-09T05:37:36.656Z,144.51
2023-05-09T05:38:36.657Z,145.85
2023-05-09T05:39:36.683Z,148.89
2023-05-09T05:40:36.610Z,153.89
2023-05-09T05:41:36.606Z,158.58
2023-05-09T05:42:36.608Z,165.31
2023-05-09T05:43:36.558Z,164.93
2023-05-09T05:44:36.572Z,177.07
2023-05-09T05:45:36.583Z,179.92
2023-05-09T05:46:36.558Z,184.17
2023-05-09T05:47:36.885Z,189.65
2023-05-09T05:48:36.531Z,191.11
2023-05-09T05:49:36.529Z,194.90
2023-05-09T05:50:36.526Z,197.55
2023-05-09T05:51:36.514Z,206.03
2023-05-09T05:52:36.581Z,212.05
2023-05-09T05:53:36.518Z,218.15
2023-05-09T05:54:36.501Z,220.91
2023-05-09T05:55:36.588Z,235.29
2023-05-09T05:56:36.556Z,240.09
2023-05-09T05:57:36.609Z,247.46
2023-05-09T05:58:36.456Z,247.34
2023-05-09T05:59:36.481Z,248.85
2023-05-09T06:00:36.477Z,250.23
2023-05-09T06:01:36.471Z,248.63
2023-05-09T06:02:36.983Z,247.99
2023-05-09T06:03:36.643Z,249.84
2023-05-09T06:04:36.430Z,247.98
2023-05-09T06:05:36.451Z,248.45
2023-05-09T06:06:36.408Z,248.07
2023-05-09T06:07:37.349Z,249.15
2023-05-09T06:08:36.499Z,250.00
2023-05-09T06:09:36.422Z,250.00
2023-05-09T06:10:36.391Z,248.63
2023-05-09T06:11:36.465Z,248.56
2023-05-09T06:12:36.432Z,249.54
2023-05-09T06:13:36.439Z,249.44
2023-05-09T06:14:36.462Z,248.60
2023-05-09T06:15:36.521Z,248.03
2023-05-09T06:16:36.496Z,249.30
2023-05-09T06:17:36.498Z,250.00
2023-05-09T06:18:36.440Z,249.92
2023-05-09T06:19:36.470Z,249.80
2023-05-09T06:20:36.437Z,249.40
2023-05-09T06:21:36.516Z,248.60
2023-05-09T06:22:36.457Z,249.22
2023-05-09T06:23:37.059Z,250.00
2023-05-09T06:24:36.686Z,250.00
2023-05-09T06:25:36.467Z,248.90
2023-05-09T06:26:36.593Z,248.39
2023-05-09T06:27:36.612Z,248.84
2023-05-09T06:28:36.584Z,249.08
2023-05-09T06:29:36.639Z,247.86
2023-05-09T06:30:36.703Z,246.48
2023-05-09T06:31:36.764Z,245.01
2023-05-09T06:32:37.838Z,243.12
2023-05-09T06:33:36.905Z,240.86
2023-05-09T06:34:36.936Z,239.78
2023-05-09T06:35:36.998Z,237.62
2023-05-09T06:36:37.067Z,236.64
2023-05-09T06:37:37.154Z,239.48
2023-05-09T06:38:37.312Z,240.16
2023-05-09T06:39:37.328Z,241.70
2023-05-09T06:40:37.293Z,241.96
2023-05-09T06:41:37.354Z,239.11
2023-05-09T06:42:37.392Z,231.87
2023-05-09T06:43:37.643Z,227.12
2023-05-09T06:44:37.532Z,224.92
2023-05-09T06:45:37.508Z,223.43
2023-05-09T06:46:37.588Z,217.27
2023-05-09T06:47:37.565Z,208.84
2023-05-09T06:48:37.486Z,198.72
2023-05-09T06:49:37.513Z,192.85
2023-05-09T06:50:37.549Z,194.83
2023-05-09T06:51:37.565Z,196.90
2023-05-09T06:52:37.523Z,193.95
2023-05-09T06:53:37.591Z,188.46
2023-05-09T06:54:37.668Z,180.05
2023-05-09T06:55:37.633Z,178.59
2023-05-09T06:56:37.595Z,175.42
2023-05-09T06:57:37.619Z,176.52
2023-05-09T06:58:37.633Z,175.17
2023-05-09T06:59:37.742Z,173.79
2023-05-09T07:00:37.651Z,175.63
2023-05-09T07:01:37.708Z,168.77
2023-05-09T07:02:37.763Z,166.43
2023-05-09T07:03:37.734Z,168.29
2023-05-09T07:04:37.823Z,164.92
2023-05-09T07:05:37.756Z,161.22
2023-05-09T07:06:37.780Z,161.27
2023-05-09T07:07:37.814Z,158.81
2023-05-09T07:08:37.886Z,158.01
2023-05-09T07:09:37.839Z,158.57
2023-05-09T07:10:37.850Z,151.10
2023-05-09T07:11:37.880Z,147.00
2023-05-09T07:12:37.911Z,149.67
2023-05-09T07:13:37.985Z,149.72
2023-05-09T07:14:37.972Z,151.94
2023-05-09T07:15:41.871Z,157.38
2023-05-09T07:16:38.072Z,157.56
2023-05-09T07:17:38.000Z,156.75
2023-05-09T07:18:38.760Z,150.42
2023-05-09T07:19:37.942Z,145.69
2023-05-09T07:20:37.993Z,145.88
2023-05-09T07:21:37.913Z,141.26
2023-05-09T07:22:38.073Z,152.38
2023-05-09T07:23:37.926Z,148.17
2023-05-09T07:24:37.970Z,142.19
2023-05-09T07:25:37.894Z,143.18
2023-05-09T07:26:37.904Z,146.32
2023-05-09T07:27:37.921Z,148.26
2023-05-09T07:28:37.860Z,152.42
2023-05-09T07:29:37.875Z,156.00
2023-05-09T07:30:37.882Z,159.66
2023-05-09T07:31:37.963Z,162.11
2023-05-09T07:32:37.917Z,166.32
2023-05-09T07:33:37.862Z,170.03
2023-05-09T07:34:37.868Z,176.14
2023-05-09T07:35:37.862Z,175.88
2023-05-09T07:37:38.351Z,173.01
2023-05-09T07:38:37.860Z,172.71
2023-05-09T07:39:38.867Z,169.74
2023-05-09T07:40:37.796Z,171.78
2023-05-09T07:41:37.837Z,162.11
2023-05-09T07:42:37.790Z,150.67
2023-05-09T07:43:37.763Z,138.07
2023-05-09T07:44:37.766Z,130.70
2023-05-09T07:45:37.842Z,121.09
2023-05-09T07:46:37.862Z,117.35
2023-05-09T07:47:37.827Z,109.68
2023-05-09T07:48:37.802Z,105.43
2023-05-09T07:49:37.720Z,100.77
2023-05-09T07:50:37.751Z,92.27
2023-05-09T07:51:37.775Z,87.63
2023-05-09T07:52:37.720Z,87.86
2023-05-09T07:53:37.780Z,85.75
2023-05-09T07:54:37.719Z,82.72
2023-05-09T07:55:37.684Z,81.55
2023-05-09T07:56:37.756Z,77.98
2023-05-09T07:57:37.680Z,75.47
2023-05-09T07:58:37.708Z,74.78
2023-05-09T07:59:37.723Z,81.49
2023-05-09T08:00:37.647Z,89.21
2023-05-09T08:01:37.664Z,91.93
2023-05-09T08:02:37.909Z,107.61
2023-05-09T08:03:37.771Z,104.28
2023-05-09T08:04:37.832Z,105.85
2023-05-09T08:05:37.604Z,104.11
2023-05-09T08:06:37.605Z,101.94
2023-05-09T08:07:37.585Z,100.44
2023-05-09T08:08:38.969Z,94.84
2023-05-09T08:09:37.639Z,93.12
2023-05-09T08:10:37.712Z,87.81
2023-05-09T08:11:37.664Z,89.78
2023-05-09T08:12:37.647Z,90.91
2023-05-09T08:13:37.661Z,83.81
2023-05-09T08:14:37.676Z,78.91
2023-05-09T08:15:37.796Z,74.41
2023-05-09T08:16:37.714Z,68.99
2023-05-09T08:17:37.754Z,69.24
2023-05-09T08:18:37.721Z,72.78
2023-05-09T08:19:37.783Z,82.12
2023-05-09T08:20:37.723Z,73.15
2023-05-09T08:21:37.962Z,67.39
2023-05-09T08:22:37.752Z,66.49
2023-05-09T08:23:38.357Z,74.63
2023-05-09T08:24:37.734Z,72.07
2023-05-09T08:25:37.734Z,76.64
2023-05-09T08:26:37.732Z,81.57
2023-05-09T08:27:37.824Z,86.67
2023-05-09T08:28:37.884Z,85.60
2023-05-09T08:29:37.799Z,66.23
2023-05-09T08:30:37.752Z,58.37
2023-05-09T08:31:37.838Z,50.23
2023-05-09T08:32:37.873Z,41.54
2023-05-09T08:33:38.836Z,36.60
2023-05-09T08:34:37.799Z,37.13
2023-05-09T08:35:37.828Z,35.22
2023-05-09T08:36:37.871Z,34.54
2023-05-09T08:37:37.792Z,25.00
2023-05-09T08:38:37.864Z,26.72
2023-05-09T08:39:37.988Z,25.94
2023-05-09T08:40:37.786Z,26.51
2023-05-09T08:41:37.712Z,31.28
2023-05-09T08:42:37.723Z,65.72
2023-05-09T08:43:37.693Z,81.94
2023-05-09T08:44:37.720Z,92.61
2023-05-09T08:45:37.689Z,100.71
2023-05-09T08:46:37.755Z,100.75
2023-05-09T08:47:37.783Z,102.51
2023-05-09T08:48:37.697Z,103.97
2023-05-09T08:49:37.928Z,104.01
2023-05-09T08:50:37.681Z,108.03
2023-05-09T08:51:37.747Z,107.37
2023-05-09T08:52:38.368Z,106.95
2023-05-09T08:53:37.923Z,104.56
2023-05-09T08:54:37.663Z,113.29
2023-05-09T08:55:37.619Z,120.54
2023-05-09T08:56:37.631Z,117.34
2023-05-09T08:57:37.617Z,108.44
2023-05-09T08:58:37.627Z,110.15
2023-05-09T08:59:37.584Z,103.82
2023-05-09T09:00:37.602Z,105.32
2023-05-09T09:01:37.703Z,100.07
2023-05-09T09:02:37.590Z,102.57
2023-05-09T09:03:37.614Z,97.99
2023-05-09T09:04:37.603Z,97.88
2023-05-09T09:05:41.796Z,98.41
2023-05-09T09:06:37.556Z,98.73
2023-05-09T09:07:37.681Z,99.62
2023-05-09T09:08:37.550Z,100.30
2023-05-09T09:09:37.576Z,103.62
2023-05-09T09:10:37.538Z,106.51
2023-05-09T09:11:37.550Z,109.47
2023-05-09T09:12:37.519Z,116.77
2023-05-09T09:13:37.529Z,110.44
2023-05-09T09:14:37.497Z,107.32
2023-05-09T09:15:37.501Z,98.49
2023-05-09T09:16:37.648Z,99.74
2023-05-09T09:17:37.672Z,104.13
2023-05-09T09:18:39.255Z,111.05
2023-05-09T09:19:37.710Z,109.48
2023-05-09T09:20:37.732Z,118.60
2023-05-09T09:21:37.820Z,125.73
2023-05-09T09:22:37.864Z,127.43
2023-05-09T09:23:38.017Z,122.26
2023-05-09T09:24:38.042Z,123.82
2023-05-09T09:25:38.058Z,121.71
2023-05-09T09:26:38.130Z,118.26
2023-05-09T09:27:38.223Z,123.33
2023-05-09T09:28:38.224Z,117.64
2023-05-09T09:29:38.290Z,122.29
2023-05-09T09:30:38.349Z,127.41
2023-05-09T09:31:38.422Z,131.97
2023-05-09T09:32:38.468Z,132.30
2023-05-09T09:33:38.516Z,121.87
2023-05-09T09:34:38.542Z,123.71
2023-05-09T09:35:38.603Z,127.82
2023-05-09T09:36:38.663Z,129.68
2023-05-09T09:37:38.702Z,115.81
2023-05-09T09:38:38.718Z,119.35
2023-05-09T09:39:38.974Z,117.13
2023-05-09T09:40:38.826Z,120.03
2023-05-09T09:41:38.891Z,115.77
2023-05-09T09:42:38.930Z,90.36
2023-05-09T09:43:39.014Z,74.03
2023-05-09T09:44:39.402Z,67.53
2023-05-09T09:45:39.145Z,63.75
2023-05-09T09:46:39.199Z,57.18
2023-05-09T09:47:39.341Z,53.92
2023-05-09T09:48:39.316Z,32.78
2023-05-09T09:49:39.382Z,39.72
2023-05-09T09:50:39.428Z,37.40
2023-05-09T09:51:39.519Z,29.61
2023-05-09T09:52:39.563Z,26.88
2023-05-09T09:53:39.615Z,29.38
2023-05-09T09:54:39.742Z,21.82
2023-05-09T09:55:39.818Z,24.89
2023-05-09T09:56:39.809Z,25.63
2023-05-09T09:57:40.037Z,25.00
2023-05-09T09:58:39.918Z,29.88
2023-05-09T09:59:39.975Z,26.84
2023-05-09T10:00:40.046Z,29.54
2023-05-09T10:01:40.157Z,31.30
2023-05-09T10:02:40.204Z,28.74
2023-05-09T10:03:40.265Z,31.73
2023-05-09T10:04:40.289Z,37.53
2023-05-09T10:05:40.369Z,57.78
2023-05-09T10:06:40.419Z,63.10
2023-05-09T10:07:40.469Z,72.92
2023-05-09T10:08:40.513Z,61.39
2023-05-09T10:09:40.583Z,40.62
2023-05-09T10:10:40.633Z,33.60
2023-05-09T10:11:40.801Z,42.43
2023-05-09T10:12:40.825Z,59.14
2023-05-09T10:13:40.888Z,66.49
2023-05-09T10:14:40.955Z,67.75
2023-05-09T10:15:52.134Z,59.39
2023-05-09T10:16:44.424Z,59.49
2023-05-09T10:17:41.097Z,59.43
2023-05-09T10:18:41.181Z,60.31
2023-05-09T10:19:40.916Z,61.83
2023-05-09T10:20:40.933Z,67.49
2023-05-09T10:21:40.960Z,64.01
2023-05-09T10:22:40.904Z,65.92
2023-05-09T10:23:40.891Z,72.14
2023-05-09T10:24:40.922Z,63.40
2023-05-09T10:25:40.899Z,60.34
2023-05-09T10:26:40.909Z,65.32
2023-05-09T10:27:40.936Z,74.22
2023-05-09T10:28:40.857Z,83.64
2023-05-09T10:29:40.848Z,94.99
2023-05-09T10:30:40.864Z,100.43
2023-05-09T10:31:40.894Z,112.65
2023-05-09T10:32:40.863Z,116.54
2023-05-09T10:33:40.808Z,127.99
2023-05-09T10:34:40.857Z,136.00
2023-05-09T10:35:40.802Z,138.17
2023-05-09T10:36:40.810Z,132.63
2023-05-09T10:37:40.777Z,134.08
2023-05-09T10:38:40.813Z,137.55
2023-05-09T10:39:40.799Z,137.51
2023-05-09T10:40:40.819Z,138.48
2023-05-09T10:41:40.774Z,140.51
2023-05-09T10:42:40.794Z,140.66
2023-05-09T10:43:40.863Z,138.91
2023-05-09T10:44:40.756Z,139.18
2023-05-09T10:45:40.758Z,138.50
2023-05-09T10:46:40.901Z,138.09
2023-05-09T10:47:40.879Z,135.97
2023-05-09T10:48:40.956Z,135.88
2023-05-09T10:49:40.971Z,138.28
2023-05-09T10:50:41.060Z,129.24
2023-05-09T10:51:41.083Z,129.82
2023-05-09T10:52:41.947Z,131.67
2023-05-09T10:53:41.186Z,129.71
2023-05-09T10:54:41.326Z,129.06
2023-05-09T10:55:41.365Z,131.08
2023-05-09T10:56:41.554Z,129.02
2023-05-09T10:57:41.400Z,130.88
2023-05-09T10:58:41.459Z,132.11
2023-05-09T10:59:41.615Z,130.10
2023-05-09T11:00:41.561Z,129.08
2023-05-09T11:01:41.644Z,127.71
2023-05-09T11:02:41.718Z,123.30
2023-05-09T11:03:41.767Z,120.40
2023-05-09T11:04:41.766Z,114.80
2023-05-09T11:05:41.833Z,117.86
2023-05-09T11:06:41.907Z,112.56
2023-05-09T11:07:41.913Z,98.67
2023-05-09T11:08:41.946Z,70.03
2023-05-09T11:09:42.023Z,83.73
2023-05-09T11:10:42.164Z,58.84
2023-05-09T11:11:42.149Z,26.71
2023-05-09T11:12:42.244Z,34.11
2023-05-09T11:13:42.248Z,39.15
2023-05-09T11:14:42.375Z,41.99
2023-05-09T11:15:42.413Z,39.47
2023-05-09T11:16:42.485Z,48.06
2023-05-09T11:17:42.472Z,48.28
2023-05-09T11:18:42.551Z,10.37
2023-05-09T11:19:42.568Z,32.32
2023-05-09T11:20:42.628Z,32.46
2023-05-09T11:21:42.693Z,36.93
2023-05-09T11:22:42.784Z,37.08
2023-05-09T11:23:42.817Z,42.34
2023-05-09T11:24:42.938Z,30.71
2023-05-09T11:25:42.897Z,43.14
2023-05-09T11:26:42.949Z,46.31
2023-05-09T11:27:42.997Z,47.53
2023-05-09T11:28:43.080Z,44.77
2023-05-09T11:29:43.109Z,25.00
2023-05-09T11:30:43.185Z,25.22
2023-05-09T11:31:43.353Z,23.73
2023-05-09T11:32:43.331Z,19.17
2023-05-09T11:33:43.350Z,16.59
2023-05-09T11:34:43.450Z,31.22
2023-05-09T11:35:43.484Z,36.09
2023-05-09T11:36:43.519Z,46.02
2023-05-09T11:37:43.563Z,43.56
2023-05-09T11:38:43.629Z,32.70
2023-05-09T11:39:43.724Z,34.06
2023-05-09T11:40:43.761Z,38.42
2023-05-09T11:41:43.867Z,48.52
2023-05-09T11:42:43.862Z,25.45
2023-05-09T11:43:43.913Z,37.71
2023-05-09T11:44:44.439Z,46.03
2023-05-09T11:45:44.047Z,39.52
2023-05-09T11:46:44.092Z,34.96
2023-05-09T11:47:44.240Z,25.54
2023-05-09T11:48:44.177Z,25.69
2023-05-09T11:49:44.246Z,39.81
2023-05-09T11:50:44.238Z,42.78
2023-05-09T11:51:44.332Z,40.52
2023-05-09T11:52:44.396Z,26.20
2023-05-09T11:53:44.394Z,32.88
2023-05-09T11:54:44.494Z,41.14
2023-05-09T11:55:44.468Z,39.55
2023-05-09T11:56:44.527Z,46.26
2023-05-09T11:57:44.656Z,29.33
2023-05-09T11:58:44.619Z,32.96
2023-05-09T11:59:44.683Z,25.82
2023-05-09T12:00:44.697Z,26.04
2023-05-09T12:01:44.728Z,26.35
2023-05-09T12:02:44.880Z,39.43
2023-05-09T12:03:45.144Z,33.77
2023-05-09T12:04:44.973Z,23.95
2023-05-09T12:05:44.897Z,45.81
2023-05-09T12:07:45.016Z,46.62
2023-05-09T12:08:45.052Z,45.96
2023-05-09T12:09:45.120Z,40.47
2023-05-09T12:10:45.152Z,38.38
2023-05-09T12:11:45.171Z,40.10
2023-05-09T12:12:45.289Z,48.38
2023-05-09T12:13:45.247Z,49.82
2023-05-09T12:14:45.466Z,57.48
2023-05-09T12:15:45.374Z,54.81
2023-05-09T12:16:45.437Z,59.43
2023-05-09T12:17:45.479Z,44.72
2023-05-09T12:18:45.459Z,9.32
2023-05-09T12:19:45.654Z,0.00
2023-05-09T12:20:45.566Z,0.00
2023-05-09T12:21:45.600Z,24.18
2023-05-09T12:22:45.652Z,20.75
2023-05-09T12:23:45.790Z,34.83
2023-05-09T12:24:45.769Z,38.63
2023-05-09T12:25:45.804Z,27.47
2023-05-09T12:26:45.847Z,23.18
2023-05-09T12:27:46.004Z,25.00
2023-05-09T12:28:45.951Z,14.73
2023-05-09T12:29:46.054Z,13.11
2023-05-09T12:30:46.090Z,22.81
2023-05-09T12:31:46.123Z,25.00
2023-05-09T12:32:46.163Z,23.35
2023-05-09T12:33:46.196Z,35.50
2023-05-09T12:34:46.260Z,41.02
2023-05-09T12:35:46.372Z,21.14
2023-05-09T12:36:46.390Z,32.99